Clovis, NM (88101)

6:05 PM MST on February 27, 2017 (GMT -0700)
Echols Subdivision | | Change Station
Active Advisory: High Wind Warning

Elev 4311 ft 34.42 °N, 103.23 °W | Updated 15 seconds ago

Clear
Clear
60.1 °F
Feels Like 60.1 °F
N
4.3
Wind Variable Wind from WSW
Gusts 7.4 mph

Today
High -- | Low -- °F
--% Chance of Precip.
Yesterday
High -- | Low -- °F
Precip. -- in
Pressure 29.77 in
Visibility 10.0 miles
Clouds Clear
Dew Point 16 °F
Humidity 18%
Rainfall 0.00 in
Snow Depth Not available.
6:23 AM 5:47 PM
New Moon, 3% visible
METAR KCVS 280058Z AUTO 28010KT 10SM CLR 16/M11 A2982 RMK AO2 SLP081 T01571107 $
Pressure 29.77 in
Visibility 10.0 miles
Clouds Clear
Dew Point 16 °F
Humidity 18%
Rainfall 0.00 in
Snow Depth Not available.
6:23 AM 5:47 PM
New Moon, 3% visible
METAR KCVS 280058Z AUTO 28010KT 10SM CLR 16/M11 A2982 RMK AO2 SLP081 T01571107 $

Get Your Daily Forecast Email!

Thanks for signing up!

Be on the lookout for a verification email in your inbox.

You'll start receiving the daily forecast at 8 AM.

×

10-Day Weather Forecast

Almanac

Astronomy

Feb. 27, 2017 Rise Set
Actual Time
Civil Twilight
Nautical Twilight
Astronomical Twilight
Moon
Length of Visible Light
Length of Day
Tomorrow will be .
, % of the Moon is Illuminated

Today's Extremes

State Highs State Lows

Community

WunderPhotos

Upload Photos

1,962,540 photos uploaded!

WunderBlog® & News

Nearby

Air Quality

  Air Quality AQ Index Pollutant
Not available.

Snow Depth

Station Depth Elevation

Earthquake Activity

City Distance Mag. Time & Date
Minimum magnitude displayed is 2.5.

Coastal Water Temperatures

Place Temperature

Stations

Nearby Weather Stations

Station Location Temp. Windchill Dew Point Humidity Wind Precip. Elev Updated Type
                   

Watches & Warnings

High Wind Warning
Issued: 5:01 PM MST Feb. 27, 2017 – National Weather Service

... High Wind Warning remains in effect from 10 am to 7 PM MST
Tuesday...

* location... Guadalupe, Quay, Curry, Roosevelt and De Baca
counties and the Chaves County plains.

* Winds... west to southwest at 30 to 45 mph with gusts of 55 to
65 mph.

* Timing... winds will increase rapidly early Tuesday morning,
peak from midday through the afternoon, then diminish in the
evening.

* Visibility... could be reduced to 1 mile in blowing dust.

* Local impacts... drivers of vans, campers, trailers, and other
high-profile vehicles should be prepared for these potentially
dangerous high winds, especially on north to south oriented
highways, including U.S. Highways 285, 84 and 54.

Precautionary/preparedness actions...

Remember, a High Wind Warning means damaging winds are imminent
or highly likely. Sustained wind speeds of at least 40 mph or
gusts of 58 mph or more can lead to property damage.